Huvudsida
METAR-TAF:

METAR-TAF

Flygplatser :

Gwadar, Pakistan

latitud: 25-13-59N, longitud: 062-19-46E, höjd: 29 m

METAR: saknas

Tid: 11:05 (06:05 UTC)

Väderprognos

Denna rapport gjordes för 2 timmar och 35 minuter sedan, klockan 03:30 UTC
Prognos gäller från 22 kl. 06 UTC till 23 kl. 06 UTC
Vind 7 kt från sydost i byarna ända upp till 17 kt
Sikt: 6000 m
Blir
från 22 kl. 18 UTC till 22 kl. 20 UTC
Vind 7 kt från nord/nordväst
Sikt: 4000 m
torrdis
Temporärt
från 23 kl. 00 UTC till 23 kl. 04 UTC
Vind 5 kt från nord/nordost
Sikt: 3000 m
fuktdis

TAF: OPGD 220330Z 2206/2306 14007G17KT 6000 NSC BECMG 2218/2220 34007KT 4000 HZ NSC TEMPO 2300/2304 03005KT 3000 BR NSC

Aktuella väderrapporter och prognoser från 4000 flygplatser (METAR- och TAF-rapporter).

De tillgängliga stationerna syns som gula och röda prickar på kartan.

För musen över prickarna för att se namnen på stationerna.

Klicka sedan för att få väderrapporter och prognoser.

För att ändra kartan: Klicka på de gröna knapparna med ett svart kors på för att zooma in; den gröna knappen med ett streck på för att zooma ut; eller på de gröna pilarna för angränsande kartor.


METAR-TAF: